sensor_id;sensor_type;location;lat;lon;timestamp;P1;durP1;ratioP1;P2;durP2;ratioP2
14903;SDS011;7543;53.148;8.234;2022-09-12T00:00:31;5.50;;;3.90;;
14903;SDS011;7543;53.148;8.234;2022-09-12T00:02:59;6.17;;;4.00;;
14903;SDS011;7543;53.148;8.234;2022-09-12T00:05:27;5.03;;;3.73;;
14903;SDS011;7543;53.148;8.234;2022-09-12T00:07:56;5.57;;;3.77;;
14903;SDS011;7543;53.148;8.234;2022-09-12T00:10:26;5.03;;;4.00;;
14903;SDS011;7543;53.148;8.234;2022-09-12T00:12:54;6.67;;;4.30;;
14903;SDS011;7543;53.148;8.234;2022-09-12T00:15:22;6.47;;;3.97;;
14903;SDS011;7543;53.148;8.234;2022-09-12T00:17:50;5.77;;;4.27;;
14903;SDS011;7543;53.148;8.234;2022-09-12T00:20:19;6.07;;;4.00;;
14903;SDS011;7543;53.148;8.234;2022-09-12T00:22:47;6.37;;;4.17;;
14903;SDS011;7543;53.148;8.234;2022-09-12T00:25:15;5.90;;;4.10;;
14903;SDS011;7543;53.148;8.234;2022-09-12T00:27:45;6.90;;;4.33;;
14903;SDS011;7543;53.148;8.234;2022-09-12T00:30:13;5.37;;;4.10;;
14903;SDS011;7543;53.148;8.234;2022-09-12T00:32:41;5.27;;;3.80;;
14903;SDS011;7543;53.148;8.234;2022-09-12T00:35:10;5.57;;;4.03;;
14903;SDS011;7543;53.148;8.234;2022-09-12T00:37:38;5.53;;;4.33;;
14903;SDS011;7543;53.148;8.234;2022-09-12T00:40:07;5.60;;;4.10;;
14903;SDS011;7543;53.148;8.234;2022-09-12T00:42:35;6.53;;;3.67;;
14903;SDS011;7543;53.148;8.234;2022-09-12T00:45:05;5.53;;;3.90;;
14903;SDS011;7543;53.148;8.234;2022-09-12T00:47:35;4.43;;;3.53;;
14903;SDS011;7543;53.148;8.234;2022-09-12T00:50:04;4.93;;;3.67;;
14903;SDS011;7543;53.148;8.234;2022-09-12T00:52:35;6.43;;;3.87;;
14903;SDS011;7543;53.148;8.234;2022-09-12T00:55:08;6.07;;;3.67;;
14903;SDS011;7543;53.148;8.234;2022-09-12T00:57:39;7.17;;;4.00;;
14903;SDS011;7543;53.148;8.234;2022-09-12T01:00:12;4.40;;;3.53;;
14903;SDS011;7543;53.148;8.234;2022-09-12T01:02:43;4.83;;;3.60;;
14903;SDS011;7543;53.148;8.234;2022-09-12T01:05:12;4.87;;;3.50;;
14903;SDS011;7543;53.148;8.234;2022-09-12T01:07:41;3.90;;;3.00;;
14903;SDS011;7543;53.148;8.234;2022-09-12T01:10:10;5.80;;;3.80;;
14903;SDS011;7543;53.148;8.234;2022-09-12T01:12:39;5.17;;;3.60;;
14903;SDS011;7543;53.148;8.234;2022-09-12T01:15:08;4.73;;;3.50;;
14903;SDS011;7543;53.148;8.234;2022-09-12T01:17:40;5.20;;;3.60;;
14903;SDS011;7543;53.148;8.234;2022-09-12T01:23:31;5.90;;;3.90;;
14903;SDS011;7543;53.148;8.234;2022-09-12T01:26:25;5.70;;;4.00;;
14903;SDS011;7543;53.148;8.234;2022-09-12T01:29:13;5.00;;;3.30;;
14903;SDS011;7543;53.148;8.234;2022-09-12T01:31:54;5.83;;;3.97;;
14903;SDS011;7543;53.148;8.234;2022-09-12T01:34:28;5.63;;;4.10;;
14903;SDS011;7543;53.148;8.234;2022-09-12T01:37:00;5.60;;;3.60;;
14903;SDS011;7543;53.148;8.234;2022-09-12T01:39:36;5.70;;;3.60;;
14903;SDS011;7543;53.148;8.234;2022-09-12T01:42:09;5.23;;;3.47;;
14903;SDS011;7543;53.148;8.234;2022-09-12T01:44:41;5.00;;;3.17;;
14903;SDS011;7543;53.148;8.234;2022-09-12T01:47:17;5.60;;;3.30;;
14903;SDS011;7543;53.148;8.234;2022-09-12T01:49:49;4.67;;;3.40;;
14903;SDS011;7543;53.148;8.234;2022-09-12T01:52:22;4.30;;;3.17;;
14903;SDS011;7543;53.148;8.234;2022-09-12T01:54:54;4.53;;;2.97;;
14903;SDS011;7543;53.148;8.234;2022-09-12T01:57:26;4.23;;;3.03;;
14903;SDS011;7543;53.148;8.234;2022-09-12T01:59:57;9.60;;;3.40;;
14903;SDS011;7543;53.148;8.234;2022-09-12T02:02:30;4.73;;;3.30;;
14903;SDS011;7543;53.148;8.234;2022-09-12T02:05:01;4.07;;;3.00;;
14903;SDS011;7543;53.148;8.234;2022-09-12T02:07:35;5.93;;;3.57;;
14903;SDS011;7543;53.148;8.234;2022-09-12T02:10:06;4.67;;;3.23;;
14903;SDS011;7543;53.148;8.234;2022-09-12T02:12:38;3.83;;;2.87;;
14903;SDS011;7543;53.148;8.234;2022-09-12T02:15:08;4.27;;;2.90;;
14903;SDS011;7543;53.148;8.234;2022-09-12T02:17:38;4.90;;;3.33;;
14903;SDS011;7543;53.148;8.234;2022-09-12T02:20:11;4.77;;;3.37;;
14903;SDS011;7543;53.148;8.234;2022-09-12T02:22:42;3.30;;;3.00;;
14903;SDS011;7543;53.148;8.234;2022-09-12T02:25:11;5.80;;;3.90;;
14903;SDS011;7543;53.148;8.234;2022-09-12T02:27:43;6.37;;;3.63;;
14903;SDS011;7543;53.148;8.234;2022-09-12T02:30:12;5.27;;;3.43;;
14903;SDS011;7543;53.148;8.234;2022-09-12T02:32:44;5.07;;;3.37;;
14903;SDS011;7543;53.148;8.234;2022-09-12T02:35:20;4.23;;;3.20;;
14903;SDS011;7543;53.148;8.234;2022-09-12T02:37:52;5.37;;;3.10;;
14903;SDS011;7543;53.148;8.234;2022-09-12T02:40:24;4.07;;;3.10;;
14903;SDS011;7543;53.148;8.234;2022-09-12T02:42:52;4.97;;;3.13;;
14903;SDS011;7543;53.148;8.234;2022-09-12T02:45:20;5.23;;;3.40;;
14903;SDS011;7543;53.148;8.234;2022-09-12T02:47:51;4.27;;;3.13;;
14903;SDS011;7543;53.148;8.234;2022-09-12T02:50:23;4.40;;;3.47;;
14903;SDS011;7543;53.148;8.234;2022-09-12T02:52:51;3.90;;;2.93;;
14903;SDS011;7543;53.148;8.234;2022-09-12T02:55:21;4.53;;;3.50;;
14903;SDS011;7543;53.148;8.234;2022-09-12T02:57:50;5.20;;;3.50;;
14903;SDS011;7543;53.148;8.234;2022-09-12T03:00:18;5.87;;;3.33;;
14903;SDS011;7543;53.148;8.234;2022-09-12T03:03:01;4.97;;;3.60;;
14903;SDS011;7543;53.148;8.234;2022-09-12T03:05:39;4.80;;;2.97;;
14903;SDS011;7543;53.148;8.234;2022-09-12T03:11:24;3.70;;;3.20;;
14903;SDS011;7543;53.148;8.234;2022-09-12T03:13:59;3.93;;;2.93;;
14903;SDS011;7543;53.148;8.234;2022-09-12T03:16:34;4.87;;;3.10;;
14903;SDS011;7543;53.148;8.234;2022-09-12T03:19:12;3.83;;;2.93;;
14903;SDS011;7543;53.148;8.234;2022-09-12T03:21:47;4.30;;;3.17;;
14903;SDS011;7543;53.148;8.234;2022-09-12T03:24:23;3.97;;;2.70;;
14903;SDS011;7543;53.148;8.234;2022-09-12T03:26:53;3.50;;;2.43;;
14903;SDS011;7543;53.148;8.234;2022-09-12T03:29:23;4.93;;;3.10;;
14903;SDS011;7543;53.148;8.234;2022-09-12T03:31:53;5.40;;;3.40;;
14903;SDS011;7543;53.148;8.234;2022-09-12T03:34:25;4.23;;;2.93;;
14903;SDS011;7543;53.148;8.234;2022-09-12T03:36:54;4.70;;;2.90;;
14903;SDS011;7543;53.148;8.234;2022-09-12T03:39:22;4.43;;;2.87;;
14903;SDS011;7543;53.148;8.234;2022-09-12T03:41:52;3.90;;;2.80;;
14903;SDS011;7543;53.148;8.234;2022-09-12T03:44:21;3.77;;;2.80;;
14903;SDS011;7543;53.148;8.234;2022-09-12T03:46:49;3.53;;;2.80;;
14903;SDS011;7543;53.148;8.234;2022-09-12T03:49:17;4.53;;;2.83;;
14903;SDS011;7543;53.148;8.234;2022-09-12T03:51:47;4.87;;;2.97;;
14903;SDS011;7543;53.148;8.234;2022-09-12T03:54:15;3.87;;;2.90;;
14903;SDS011;7543;53.148;8.234;2022-09-12T03:56:43;4.57;;;2.93;;
14903;SDS011;7543;53.148;8.234;2022-09-12T03:59:12;4.53;;;3.00;;
14903;SDS011;7543;53.148;8.234;2022-09-12T04:01:40;3.77;;;2.83;;
14903;SDS011;7543;53.148;8.234;2022-09-12T04:04:08;3.33;;;2.50;;
14903;SDS011;7543;53.148;8.234;2022-09-12T04:06:36;3.73;;;3.00;;
14903;SDS011;7543;53.148;8.234;2022-09-12T04:09:06;3.17;;;2.30;;
14903;SDS011;7543;53.148;8.234;2022-09-12T04:11:34;3.40;;;2.50;;
14903;SDS011;7543;53.148;8.234;2022-09-12T04:14:02;3.73;;;2.90;;
14903;SDS011;7543;53.148;8.234;2022-09-12T04:16:31;3.77;;;2.57;;
14903;SDS011;7543;53.148;8.234;2022-09-12T04:18:59;3.50;;;2.80;;
14903;SDS011;7543;53.148;8.234;2022-09-12T04:21:27;3.10;;;2.60;;
14903;SDS011;7543;53.148;8.234;2022-09-12T04:23:56;3.10;;;2.73;;
14903;SDS011;7543;53.148;8.234;2022-09-12T04:26:26;3.20;;;2.50;;
14903;SDS011;7543;53.148;8.234;2022-09-12T04:28:55;4.30;;;2.77;;
14903;SDS011;7543;53.148;8.234;2022-09-12T04:31:24;6.30;;;2.73;;
14903;SDS011;7543;53.148;8.234;2022-09-12T04:33:52;3.43;;;2.40;;
14903;SDS011;7543;53.148;8.234;2022-09-12T04:36:22;3.37;;;2.67;;
14903;SDS011;7543;53.148;8.234;2022-09-12T04:38:52;4.03;;;2.10;;
14903;SDS011;7543;53.148;8.234;2022-09-12T04:41:21;6.47;;;2.37;;
14903;SDS011;7543;53.148;8.234;2022-09-12T04:43:52;3.53;;;2.37;;
14903;SDS011;7543;53.148;8.234;2022-09-12T04:46:21;2.87;;;2.17;;
14903;SDS011;7543;53.148;8.234;2022-09-12T04:48:49;3.33;;;2.30;;
14903;SDS011;7543;53.148;8.234;2022-09-12T04:51:18;3.13;;;2.37;;
14903;SDS011;7543;53.148;8.234;2022-09-12T04:53:48;4.90;;;2.77;;
14903;SDS011;7543;53.148;8.234;2022-09-12T04:56:18;4.43;;;2.27;;
14903;SDS011;7543;53.148;8.234;2022-09-12T04:58:46;4.03;;;1.93;;
14903;SDS011;7543;53.148;8.234;2022-09-12T05:01:17;3.37;;;2.03;;
14903;SDS011;7543;53.148;8.234;2022-09-12T05:03:46;2.83;;;1.77;;
14903;SDS011;7543;53.148;8.234;2022-09-12T05:06:15;2.80;;;1.97;;
14903;SDS011;7543;53.148;8.234;2022-09-12T05:08:45;2.97;;;1.70;;
14903;SDS011;7543;53.148;8.234;2022-09-12T05:11:14;4.70;;;2.17;;
14903;SDS011;7543;53.148;8.234;2022-09-12T05:13:43;1.73;;;1.50;;
14903;SDS011;7543;53.148;8.234;2022-09-12T05:16:12;3.37;;;2.30;;
14903;SDS011;7543;53.148;8.234;2022-09-12T05:18:43;2.50;;;2.13;;
14903;SDS011;7543;53.148;8.234;2022-09-12T05:21:13;2.83;;;2.17;;
14903;SDS011;7543;53.148;8.234;2022-09-12T05:23:43;2.40;;;2.10;;
14903;SDS011;7543;53.148;8.234;2022-09-12T05:26:13;3.20;;;2.00;;
14903;SDS011;7543;53.148;8.234;2022-09-12T05:28:42;2.30;;;1.73;;
14903;SDS011;7543;53.148;8.234;2022-09-12T05:31:11;4.07;;;2.33;;
14903;SDS011;7543;53.148;8.234;2022-09-12T05:33:41;2.83;;;2.53;;
14903;SDS011;7543;53.148;8.234;2022-09-12T05:36:12;4.67;;;2.67;;
14903;SDS011;7543;53.148;8.234;2022-09-12T05:38:42;4.57;;;3.03;;
14903;SDS011;7543;53.148;8.234;2022-09-12T05:41:12;4.67;;;2.80;;
14903;SDS011;7543;53.148;8.234;2022-09-12T05:43:41;4.43;;;3.30;;
14903;SDS011;7543;53.148;8.234;2022-09-12T05:46:10;5.53;;;3.30;;
14903;SDS011;7543;53.148;8.234;2022-09-12T05:48:41;5.67;;;4.17;;
14903;SDS011;7543;53.148;8.234;2022-09-12T05:51:12;6.20;;;4.00;;
14903;SDS011;7543;53.148;8.234;2022-09-12T05:53:45;6.17;;;4.20;;
14903;SDS011;7543;53.148;8.234;2022-09-12T05:56:15;7.03;;;3.97;;
14903;SDS011;7543;53.148;8.234;2022-09-12T05:58:46;5.63;;;4.37;;
14903;SDS011;7543;53.148;8.234;2022-09-12T06:01:16;4.87;;;3.80;;
14903;SDS011;7543;53.148;8.234;2022-09-12T06:03:47;10.80;;;4.87;;
14903;SDS011;7543;53.148;8.234;2022-09-12T06:06:16;6.73;;;4.53;;
14903;SDS011;7543;53.148;8.234;2022-09-12T06:08:46;9.20;;;4.67;;
14903;SDS011;7543;53.148;8.234;2022-09-12T06:11:16;8.47;;;5.03;;
14903;SDS011;7543;53.148;8.234;2022-09-12T06:13:46;9.13;;;5.13;;
14903;SDS011;7543;53.148;8.234;2022-09-12T06:16:15;7.20;;;5.07;;
14903;SDS011;7543;53.148;8.234;2022-09-12T06:18:47;8.30;;;4.97;;
14903;SDS011;7543;53.148;8.234;2022-09-12T06:21:16;11.37;;;6.43;;
14903;SDS011;7543;53.148;8.234;2022-09-12T06:23:44;7.57;;;5.80;;
14903;SDS011;7543;53.148;8.234;2022-09-12T06:26:14;10.10;;;5.20;;
14903;SDS011;7543;53.148;8.234;2022-09-12T06:28:43;9.10;;;5.93;;
14903;SDS011;7543;53.148;8.234;2022-09-12T06:31:13;8.50;;;5.43;;
14903;SDS011;7543;53.148;8.234;2022-09-12T06:33:44;8.47;;;6.13;;
14903;SDS011;7543;53.148;8.234;2022-09-12T06:36:15;19.93;;;6.70;;
14903;SDS011;7543;53.148;8.234;2022-09-12T06:38:44;11.40;;;6.67;;
14903;SDS011;7543;53.148;8.234;2022-09-12T06:41:13;9.90;;;6.50;;
14903;SDS011;7543;53.148;8.234;2022-09-12T06:43:42;9.27;;;6.33;;
14903;SDS011;7543;53.148;8.234;2022-09-12T06:46:10;10.97;;;6.57;;
14903;SDS011;7543;53.148;8.234;2022-09-12T06:48:39;12.43;;;7.47;;
14903;SDS011;7543;53.148;8.234;2022-09-12T06:51:08;14.13;;;7.33;;
14903;SDS011;7543;53.148;8.234;2022-09-12T06:53:40;11.87;;;7.20;;
14903;SDS011;7543;53.148;8.234;2022-09-12T06:56:10;14.23;;;8.53;;
14903;SDS011;7543;53.148;8.234;2022-09-12T06:58:40;12.87;;;8.13;;
14903;SDS011;7543;53.148;8.234;2022-09-12T07:01:09;15.00;;;7.73;;
14903;SDS011;7543;53.148;8.234;2022-09-12T07:03:38;16.27;;;8.23;;
14903;SDS011;7543;53.148;8.234;2022-09-12T07:06:08;14.83;;;8.30;;
14903;SDS011;7543;53.148;8.234;2022-09-12T07:08:37;13.73;;;8.67;;
14903;SDS011;7543;53.148;8.234;2022-09-12T07:11:08;15.53;;;7.53;;
14903;SDS011;7543;53.148;8.234;2022-09-12T07:13:38;14.83;;;8.57;;
14903;SDS011;7543;53.148;8.234;2022-09-12T07:16:07;14.60;;;8.27;;
14903;SDS011;7543;53.148;8.234;2022-09-12T07:18:35;12.70;;;7.70;;
14903;SDS011;7543;53.148;8.234;2022-09-12T07:21:05;14.17;;;8.70;;
14903;SDS011;7543;53.148;8.234;2022-09-12T07:23:34;16.83;;;8.13;;
14903;SDS011;7543;53.148;8.234;2022-09-12T07:26:03;15.77;;;8.80;;
14903;SDS011;7543;53.148;8.234;2022-09-12T07:28:33;13.83;;;8.40;;
14903;SDS011;7543;53.148;8.234;2022-09-12T07:31:04;15.07;;;8.53;;
14903;SDS011;7543;53.148;8.234;2022-09-12T07:33:34;14.40;;;8.23;;
14903;SDS011;7543;53.148;8.234;2022-09-12T07:36:02;15.60;;;7.67;;
14903;SDS011;7543;53.148;8.234;2022-09-12T07:38:31;12.17;;;7.93;;
14903;SDS011;7543;53.148;8.234;2022-09-12T07:41:00;15.77;;;9.20;;
14903;SDS011;7543;53.148;8.234;2022-09-12T07:43:28;11.83;;;7.40;;
14903;SDS011;7543;53.148;8.234;2022-09-12T07:45:58;11.93;;;7.27;;
14903;SDS011;7543;53.148;8.234;2022-09-12T07:48:26;12.90;;;7.63;;
14903;SDS011;7543;53.148;8.234;2022-09-12T07:50:57;13.27;;;8.50;;
14903;SDS011;7543;53.148;8.234;2022-09-12T07:53:29;14.87;;;8.60;;
14903;SDS011;7543;53.148;8.234;2022-09-12T07:55:58;11.80;;;7.17;;
14903;SDS011;7543;53.148;8.234;2022-09-12T07:58:28;13.87;;;7.57;;
14903;SDS011;7543;53.148;8.234;2022-09-12T08:01:02;13.63;;;7.90;;
14903;SDS011;7543;53.148;8.234;2022-09-12T08:03:30;11.60;;;7.43;;
14903;SDS011;7543;53.148;8.234;2022-09-12T08:06:02;11.37;;;7.17;;
14903;SDS011;7543;53.148;8.234;2022-09-12T08:08:31;11.27;;;7.90;;
14903;SDS011;7543;53.148;8.234;2022-09-12T08:10:59;13.27;;;7.60;;
14903;SDS011;7543;53.148;8.234;2022-09-12T08:13:28;12.83;;;8.13;;
14903;SDS011;7543;53.148;8.234;2022-09-12T08:15:57;15.43;;;8.40;;
14903;SDS011;7543;53.148;8.234;2022-09-12T08:18:27;15.10;;;8.23;;
14903;SDS011;7543;53.148;8.234;2022-09-12T08:20:56;12.83;;;7.37;;
14903;SDS011;7543;53.148;8.234;2022-09-12T08:23:24;14.30;;;7.70;;
14903;SDS011;7543;53.148;8.234;2022-09-12T08:25:54;11.67;;;7.33;;
14903;SDS011;7543;53.148;8.234;2022-09-12T08:28:23;15.87;;;8.33;;
14903;SDS011;7543;53.148;8.234;2022-09-12T08:30:52;13.83;;;7.97;;
14903;SDS011;7543;53.148;8.234;2022-09-12T08:33:20;15.13;;;7.87;;
14903;SDS011;7543;53.148;8.234;2022-09-12T08:35:50;13.90;;;8.20;;
14903;SDS011;7543;53.148;8.234;2022-09-12T08:38:18;15.20;;;7.77;;
14903;SDS011;7543;53.148;8.234;2022-09-12T08:40:48;14.90;;;8.40;;
14903;SDS011;7543;53.148;8.234;2022-09-12T08:43:23;12.57;;;7.87;;
14903;SDS011;7543;53.148;8.234;2022-09-12T08:45:58;14.00;;;8.53;;
14903;SDS011;7543;53.148;8.234;2022-09-12T08:48:29;13.37;;;8.33;;
14903;SDS011;7543;53.148;8.234;2022-09-12T08:50:59;13.80;;;8.43;;
14903;SDS011;7543;53.148;8.234;2022-09-12T08:53:27;14.97;;;8.77;;
14903;SDS011;7543;53.148;8.234;2022-09-12T08:55:57;15.53;;;8.50;;
14903;SDS011;7543;53.148;8.234;2022-09-12T08:58:27;15.40;;;8.57;;
14903;SDS011;7543;53.148;8.234;2022-09-12T09:00:57;16.37;;;8.50;;
14903;SDS011;7543;53.148;8.234;2022-09-12T09:03:50;16.00;;;8.07;;
14903;SDS011;7543;53.148;8.234;2022-09-12T09:06:28;13.07;;;8.17;;
14903;SDS011;7543;53.148;8.234;2022-09-12T09:09:04;14.83;;;8.20;;
14903;SDS011;7543;53.148;8.234;2022-09-12T09:11:36;13.80;;;8.10;;
14903;SDS011;7543;53.148;8.234;2022-09-12T09:14:15;17.87;;;8.73;;
14903;SDS011;7543;53.148;8.234;2022-09-12T09:17:08;12.23;;;7.57;;
14903;SDS011;7543;53.148;8.234;2022-09-12T09:19:39;14.67;;;8.10;;
14903;SDS011;7543;53.148;8.234;2022-09-12T09:22:12;20.00;;;8.77;;
14903;SDS011;7543;53.148;8.234;2022-09-12T09:24:43;11.60;;;7.50;;
14903;SDS011;7543;53.148;8.234;2022-09-12T09:27:18;16.90;;;9.03;;
14903;SDS011;7543;53.148;8.234;2022-09-12T09:29:51;13.10;;;8.27;;
14903;SDS011;7543;53.148;8.234;2022-09-12T09:32:23;12.10;;;7.53;;
14903;SDS011;7543;53.148;8.234;2022-09-12T09:34:53;15.20;;;7.67;;
14903;SDS011;7543;53.148;8.234;2022-09-12T09:37:24;12.33;;;7.03;;
14903;SDS011;7543;53.148;8.234;2022-09-12T09:40:00;13.30;;;7.90;;
14903;SDS011;7543;53.148;8.234;2022-09-12T09:42:35;11.07;;;7.23;;
14903;SDS011;7543;53.148;8.234;2022-09-12T09:45:12;14.33;;;7.53;;
14903;SDS011;7543;53.148;8.234;2022-09-12T09:47:43;12.60;;;7.57;;
14903;SDS011;7543;53.148;8.234;2022-09-12T09:50:13;11.50;;;7.03;;
14903;SDS011;7543;53.148;8.234;2022-09-12T09:52:44;12.83;;;7.83;;
14903;SDS011;7543;53.148;8.234;2022-09-12T09:55:14;9.90;;;6.97;;
14903;SDS011;7543;53.148;8.234;2022-09-12T09:57:44;10.87;;;6.00;;
14903;SDS011;7543;53.148;8.234;2022-09-12T10:00:23;9.07;;;6.20;;
14903;SDS011;7543;53.148;8.234;2022-09-12T10:03:03;10.50;;;5.67;;
14903;SDS011;7543;53.148;8.234;2022-09-12T10:05:49;11.90;;;6.07;;
14903;SDS011;7543;53.148;8.234;2022-09-12T10:08:20;14.60;;;6.17;;
14903;SDS011;7543;53.148;8.234;2022-09-12T10:10:53;11.60;;;6.00;;
14903;SDS011;7543;53.148;8.234;2022-09-12T10:13:24;11.00;;;5.90;;
14903;SDS011;7543;53.148;8.234;2022-09-12T10:15:55;12.27;;;5.53;;
14903;SDS011;7543;53.148;8.234;2022-09-12T10:18:31;10.47;;;5.17;;
14903;SDS011;7543;53.148;8.234;2022-09-12T10:21:05;12.40;;;5.93;;
14903;SDS011;7543;53.148;8.234;2022-09-12T10:23:44;9.60;;;5.50;;
14903;SDS011;7543;53.148;8.234;2022-09-12T10:26:14;10.47;;;5.90;;
14903;SDS011;7543;53.148;8.234;2022-09-12T10:28:43;10.17;;;4.93;;
14903;SDS011;7543;53.148;8.234;2022-09-12T10:31:13;7.97;;;5.30;;
14903;SDS011;7543;53.148;8.234;2022-09-12T10:33:43;7.80;;;4.40;;
14903;SDS011;7543;53.148;8.234;2022-09-12T10:36:18;7.87;;;4.33;;
14903;SDS011;7543;53.148;8.234;2022-09-12T10:38:49;9.33;;;4.53;;
14903;SDS011;7543;53.148;8.234;2022-09-12T10:41:18;6.30;;;3.47;;
14903;SDS011;7543;53.148;8.234;2022-09-12T10:43:47;8.47;;;3.60;;
14903;SDS011;7543;53.148;8.234;2022-09-12T10:46:19;6.23;;;3.47;;
14903;SDS011;7543;53.148;8.234;2022-09-12T10:48:51;5.53;;;3.00;;
14903;SDS011;7543;53.148;8.234;2022-09-12T10:51:39;5.37;;;2.80;;
14903;SDS011;7543;53.148;8.234;2022-09-12T10:54:09;5.40;;;2.97;;
14903;SDS011;7543;53.148;8.234;2022-09-12T10:56:41;4.33;;;2.50;;
14903;SDS011;7543;53.148;8.234;2022-09-12T10:59:17;5.93;;;3.17;;
14903;SDS011;7543;53.148;8.234;2022-09-12T11:01:51;5.13;;;3.27;;
14903;SDS011;7543;53.148;8.234;2022-09-12T11:04:30;4.40;;;2.57;;
14903;SDS011;7543;53.148;8.234;2022-09-12T11:09:59;3.83;;;2.40;;
14903;SDS011;7543;53.148;8.234;2022-09-12T11:12:32;3.83;;;2.40;;
14903;SDS011;7543;53.148;8.234;2022-09-12T11:15:08;10.13;;;2.87;;
14903;SDS011;7543;53.148;8.234;2022-09-12T11:17:45;4.57;;;2.60;;
14903;SDS011;7543;53.148;8.234;2022-09-12T11:20:26;3.43;;;2.40;;
14903;SDS011;7543;53.148;8.234;2022-09-12T11:23:08;5.67;;;3.27;;
14903;SDS011;7543;53.148;8.234;2022-09-12T11:25:57;4.03;;;3.00;;
14903;SDS011;7543;53.148;8.234;2022-09-12T11:28:31;3.33;;;2.28;;
14903;SDS011;7543;53.148;8.234;2022-09-12T11:31:06;4.05;;;2.67;;
14903;SDS011;7543;53.148;8.234;2022-09-12T11:33:46;11.37;;;2.70;;
14903;SDS011;7543;53.148;8.234;2022-09-12T11:36:24;4.40;;;2.78;;
14903;SDS011;7543;53.148;8.234;2022-09-12T11:38:59;7.40;;;3.30;;
14903;SDS011;7543;53.148;8.234;2022-09-12T11:41:31;8.40;;;3.27;;
14903;SDS011;7543;53.148;8.234;2022-09-12T11:44:02;7.93;;;3.33;;
14903;SDS011;7543;53.148;8.234;2022-09-12T11:46:37;6.13;;;3.40;;
14903;SDS011;7543;53.148;8.234;2022-09-12T11:49:10;10.40;;;3.17;;
14903;SDS011;7543;53.148;8.234;2022-09-12T11:51:48;5.45;;;3.25;;
14903;SDS011;7543;53.148;8.234;2022-09-12T11:54:21;7.35;;;3.38;;
14903;SDS011;7543;53.148;8.234;2022-09-12T11:56:57;6.28;;;3.30;;
14903;SDS011;7543;53.148;8.234;2022-09-12T11:59:32;5.38;;;3.40;;
14903;SDS011;7543;53.148;8.234;2022-09-12T12:02:02;7.97;;;3.95;;
14903;SDS011;7543;53.148;8.234;2022-09-12T12:04:33;12.52;;;4.18;;
14903;SDS011;7543;53.148;8.234;2022-09-12T12:07:06;8.75;;;4.40;;
14903;SDS011;7543;53.148;8.234;2022-09-12T12:09:36;12.82;;;4.18;;
14903;SDS011;7543;53.148;8.234;2022-09-12T12:12:15;6.53;;;4.10;;
14903;SDS011;7543;53.148;8.234;2022-09-12T12:14:46;7.05;;;3.33;;
14903;SDS011;7543;53.148;8.234;2022-09-12T12:17:18;9.32;;;4.30;;
14903;SDS011;7543;53.148;8.234;2022-09-12T12:19:55;7.43;;;4.20;;
14903;SDS011;7543;53.148;8.234;2022-09-12T12:22:24;9.38;;;4.78;;
14903;SDS011;7543;53.148;8.234;2022-09-12T12:25:02;9.23;;;4.72;;
14903;SDS011;7543;53.148;8.234;2022-09-12T12:27:48;10.75;;;4.25;;
14903;SDS011;7543;53.148;8.234;2022-09-12T12:36:28;9.32;;;4.90;;
14903;SDS011;7543;53.148;8.234;2022-09-12T12:51:48;8.52;;;4.53;;
14903;SDS011;7543;53.148;8.234;2022-09-12T12:57:21;9.02;;;4.75;;
14903;SDS011;7543;53.148;8.234;2022-09-12T12:59:54;9.57;;;4.47;;
14903;SDS011;7543;53.148;8.234;2022-09-12T13:02:27;9.27;;;4.28;;
14903;SDS011;7543;53.148;8.234;2022-09-12T13:04:58;8.60;;;4.13;;
14903;SDS011;7543;53.148;8.234;2022-09-12T13:07:29;9.95;;;3.67;;
14903;SDS011;7543;53.148;8.234;2022-09-12T13:09:58;6.47;;;3.58;;
14903;SDS011;7543;53.148;8.234;2022-09-12T13:12:28;18.10;;;4.38;;
14903;SDS011;7543;53.148;8.234;2022-09-12T13:14:59;6.82;;;3.95;;
14903;SDS011;7543;53.148;8.234;2022-09-12T13:17:30;7.45;;;3.72;;
14903;SDS011;7543;53.148;8.234;2022-09-12T13:20:02;6.57;;;3.67;;
14903;SDS011;7543;53.148;8.234;2022-09-12T13:22:46;4.93;;;3.03;;
14903;SDS011;7543;53.148;8.234;2022-09-12T13:25:22;5.55;;;3.45;;
14903;SDS011;7543;53.148;8.234;2022-09-12T13:28:01;7.40;;;3.45;;
14903;SDS011;7543;53.148;8.234;2022-09-12T13:30:32;5.78;;;2.75;;
14903;SDS011;7543;53.148;8.234;2022-09-12T13:33:06;6.57;;;3.47;;
14903;SDS011;7543;53.148;8.234;2022-09-12T13:35:40;3.63;;;2.60;;
14903;SDS011;7543;53.148;8.234;2022-09-12T13:38:13;6.07;;;3.17;;
14903;SDS011;7543;53.148;8.234;2022-09-12T13:40:53;10.07;;;3.42;;
14903;SDS011;7543;53.148;8.234;2022-09-12T13:43:30;7.25;;;3.47;;
14903;SDS011;7543;53.148;8.234;2022-09-12T13:46:04;5.82;;;2.60;;
14903;SDS011;7543;53.148;8.234;2022-09-12T13:48:35;9.68;;;3.60;;
14903;SDS011;7543;53.148;8.234;2022-09-12T13:51:03;4.88;;;2.92;;
14903;SDS011;7543;53.148;8.234;2022-09-12T13:53:35;8.07;;;3.00;;
14903;SDS011;7543;53.148;8.234;2022-09-12T13:56:14;6.78;;;3.90;;
14903;SDS011;7543;53.148;8.234;2022-09-12T13:58:49;4.60;;;2.95;;
14903;SDS011;7543;53.148;8.234;2022-09-12T14:01:20;5.47;;;3.40;;
14903;SDS011;7543;53.148;8.234;2022-09-12T14:03:50;3.95;;;2.67;;
14903;SDS011;7543;53.148;8.234;2022-09-12T14:06:44;5.25;;;3.30;;
14903;SDS011;7543;53.148;8.234;2022-09-12T14:09:15;6.55;;;3.45;;
14903;SDS011;7543;53.148;8.234;2022-09-12T14:11:47;5.63;;;3.20;;
14903;SDS011;7543;53.148;8.234;2022-09-12T14:14:18;8.00;;;3.20;;
14903;SDS011;7543;53.148;8.234;2022-09-12T14:16:53;5.78;;;3.10;;
14903;SDS011;7543;53.148;8.234;2022-09-12T14:19:23;5.93;;;3.20;;
14903;SDS011;7543;53.148;8.234;2022-09-12T14:21:52;6.60;;;3.22;;
14903;SDS011;7543;53.148;8.234;2022-09-12T14:24:21;4.50;;;2.83;;
14903;SDS011;7543;53.148;8.234;2022-09-12T14:26:50;6.47;;;2.95;;
14903;SDS011;7543;53.148;8.234;2022-09-12T14:29:19;4.03;;;2.80;;
14903;SDS011;7543;53.148;8.234;2022-09-12T14:31:58;5.72;;;3.00;;
14903;SDS011;7543;53.148;8.234;2022-09-12T14:34:29;5.53;;;2.90;;
14903;SDS011;7543;53.148;8.234;2022-09-12T14:36:57;5.15;;;2.95;;
14903;SDS011;7543;53.148;8.234;2022-09-12T14:39:27;4.32;;;2.70;;
14903;SDS011;7543;53.148;8.234;2022-09-12T14:41:59;4.57;;;2.72;;
14903;SDS011;7543;53.148;8.234;2022-09-12T14:44:30;7.25;;;3.22;;
14903;SDS011;7543;53.148;8.234;2022-09-12T14:47:09;6.10;;;3.50;;
14903;SDS011;7543;53.148;8.234;2022-09-12T14:49:40;4.85;;;3.05;;
14903;SDS011;7543;53.148;8.234;2022-09-12T14:52:22;7.25;;;3.25;;
14903;SDS011;7543;53.148;8.234;2022-09-12T14:54:56;4.78;;;2.80;;
14903;SDS011;7543;53.148;8.234;2022-09-12T14:57:35;4.60;;;3.05;;
14903;SDS011;7543;53.148;8.234;2022-09-12T15:00:17;4.30;;;2.88;;
14903;SDS011;7543;53.148;8.234;2022-09-12T15:02:48;5.15;;;2.65;;
14903;SDS011;7543;53.148;8.234;2022-09-12T15:05:20;12.82;;;3.65;;
14903;SDS011;7543;53.148;8.234;2022-09-12T15:07:51;4.43;;;2.60;;
14903;SDS011;7543;53.148;8.234;2022-09-12T15:10:22;4.00;;;2.50;;
14903;SDS011;7543;53.148;8.234;2022-09-12T15:13:03;4.97;;;2.58;;
14903;SDS011;7543;53.148;8.234;2022-09-12T15:15:54;4.88;;;2.97;;
14903;SDS011;7543;53.148;8.234;2022-09-12T15:18:24;4.38;;;2.83;;
14903;SDS011;7543;53.148;8.234;2022-09-12T15:20:55;3.40;;;2.50;;
14903;SDS011;7543;53.148;8.234;2022-09-12T15:23:27;2.72;;;2.20;;
14903;SDS011;7543;53.148;8.234;2022-09-12T15:26:01;4.25;;;2.38;;
14903;SDS011;7543;53.148;8.234;2022-09-12T15:28:29;3.58;;;1.98;;
14903;SDS011;7543;53.148;8.234;2022-09-12T15:31:03;3.78;;;2.30;;
14903;SDS011;7543;53.148;8.234;2022-09-12T15:33:33;2.40;;;1.90;;
14903;SDS011;7543;53.148;8.234;2022-09-12T15:36:04;2.80;;;2.05;;
14903;SDS011;7543;53.148;8.234;2022-09-12T15:38:39;4.40;;;2.60;;
14903;SDS011;7543;53.148;8.234;2022-09-12T15:41:09;2.88;;;2.10;;
14903;SDS011;7543;53.148;8.234;2022-09-12T15:43:38;6.72;;;2.50;;
14903;SDS011;7543;53.148;8.234;2022-09-12T15:46:09;4.75;;;2.38;;
14903;SDS011;7543;53.148;8.234;2022-09-12T15:48:37;3.45;;;2.30;;
14903;SDS011;7543;53.148;8.234;2022-09-12T15:51:09;7.25;;;2.67;;
14903;SDS011;7543;53.148;8.234;2022-09-12T15:53:38;4.78;;;2.53;;
14903;SDS011;7543;53.148;8.234;2022-09-12T15:56:06;3.25;;;2.42;;